createdAt,value
2024-03-15T00:01:59.906Z,2.33
2024-03-15T00:05:41.755Z,2.63
2024-03-15T00:09:24.054Z,2.83
2024-03-15T00:13:06.082Z,3.03
2024-03-15T00:16:47.922Z,3.35
2024-03-15T00:20:29.708Z,3.05
2024-03-15T00:24:11.557Z,3.33
2024-03-15T00:27:53.685Z,3.55
2024-03-15T00:31:35.662Z,3.00
2024-03-15T00:35:17.404Z,3.22
2024-03-15T00:38:59.357Z,2.63
2024-03-15T00:42:42.089Z,2.80
2024-03-15T00:46:24.205Z,2.88
2024-03-15T00:50:07.327Z,3.67
2024-03-15T00:53:49.143Z,3.47
2024-03-15T00:57:30.985Z,4.18
2024-03-15T01:01:13.334Z,3.00
2024-03-15T01:04:55.926Z,3.78
2024-03-15T01:08:37.735Z,3.20
2024-03-15T01:12:19.650Z,3.88
2024-03-15T01:16:04.485Z,4.30
2024-03-15T01:19:46.768Z,3.85
2024-03-15T01:23:28.650Z,4.28
2024-03-15T01:27:10.531Z,4.90
2024-03-15T01:30:52.596Z,3.63
2024-03-15T01:34:34.495Z,4.85
2024-03-15T01:38:16.409Z,4.63
2024-03-15T01:41:58.180Z,4.75
2024-03-15T01:45:41.605Z,5.43
2024-03-15T01:49:23.401Z,3.63
2024-03-15T01:53:05.956Z,3.67
2024-03-15T01:56:47.886Z,3.35
2024-03-15T02:00:29.787Z,5.68
2024-03-15T02:04:11.594Z,4.72
2024-03-15T02:07:54.052Z,3.15
2024-03-15T02:11:35.928Z,4.18
2024-03-15T02:15:18.098Z,4.40
2024-03-15T02:19:00.990Z,4.20
2024-03-15T02:22:43.373Z,3.50
2024-03-15T02:26:25.191Z,4.18
2024-03-15T02:30:07.706Z,4.32
2024-03-15T02:33:49.597Z,3.22
2024-03-15T02:37:32.963Z,3.08
2024-03-15T02:41:16.390Z,3.70
2024-03-15T02:44:58.213Z,3.17
2024-03-15T02:48:40.410Z,4.00
2024-03-15T02:52:23.009Z,3.22
2024-03-15T02:56:05.187Z,3.75
2024-03-15T02:59:47.104Z,3.83
2024-03-15T03:03:29.089Z,3.92
2024-03-15T03:07:10.999Z,3.90
2024-03-15T03:10:52.765Z,4.13
2024-03-15T03:14:35.059Z,3.03
2024-03-15T03:18:16.893Z,4.63
2024-03-15T03:21:58.789Z,4.35
2024-03-15T03:25:40.672Z,3.08
2024-03-15T03:29:24.037Z,3.53
2024-03-15T03:33:05.999Z,4.03
2024-03-15T03:36:48.026Z,3.17
2024-03-15T03:40:30.058Z,3.90
2024-03-15T03:44:11.886Z,3.90
2024-03-15T03:47:55.197Z,3.85
2024-03-15T03:51:37.138Z,4.60
2024-03-15T03:55:19.105Z,5.55
2024-03-15T03:59:00.962Z,5.75
2024-03-15T04:02:47.479Z,4.95
2024-03-15T04:06:29.781Z,5.95
2024-03-15T04:10:11.679Z,4.50
2024-03-15T04:13:53.749Z,4.88
2024-03-15T04:17:36.294Z,5.10
2024-03-15T04:21:18.214Z,4.80
2024-03-15T04:25:00.412Z,4.43
2024-03-15T04:28:43.115Z,5.82
2024-03-15T04:32:24.948Z,4.88
2024-03-15T04:36:07.369Z,4.45
2024-03-15T04:39:49.459Z,5.13
2024-03-15T04:43:33.044Z,4.43
2024-03-15T04:47:14.830Z,3.40
2024-03-15T04:50:56.672Z,4.25
2024-03-15T04:54:39.444Z,4.65
2024-03-15T04:58:22.696Z,4.82
2024-03-15T05:02:04.465Z,4.88
2024-03-15T05:05:46.250Z,5.20
2024-03-15T05:09:28.557Z,4.15
2024-03-15T05:13:10.462Z,4.80
2024-03-15T05:16:55.624Z,4.85
2024-03-15T05:20:37.489Z,4.43
2024-03-15T05:24:19.328Z,3.78
2024-03-15T05:28:01.631Z,3.35
2024-03-15T05:31:43.437Z,2.65
2024-03-15T05:35:25.235Z,2.65
2024-03-15T05:39:11.799Z,2.17
2024-03-15T05:42:54.934Z,1.35
2024-03-15T05:46:37.815Z,1.33
2024-03-15T05:50:19.745Z,0.93
2024-03-15T05:54:01.602Z,0.88
2024-03-15T05:57:43.552Z,0.77
2024-03-15T06:01:25.461Z,0.50
2024-03-15T06:05:08.432Z,0.52
2024-03-15T06:08:50.180Z,0.47
2024-03-15T06:12:32.117Z,0.82
2024-03-15T06:16:17.382Z,0.60
2024-03-15T06:19:59.633Z,0.93
2024-03-15T06:23:41.433Z,1.17
2024-03-15T06:27:23.378Z,0.90
2024-03-15T06:31:05.779Z,1.17
2024-03-15T06:34:50.512Z,1.85
2024-03-15T06:38:42.286Z,2.00
2024-03-15T06:42:25.946Z,1.80
2024-03-15T06:46:20.888Z,2.45
2024-03-15T06:50:15.125Z,1.48
2024-03-15T06:53:57.771Z,2.47
2024-03-15T06:57:40.418Z,2.40
2024-03-15T07:01:22.288Z,1.77
2024-03-15T07:05:05.192Z,2.80
2024-03-15T07:08:50.904Z,2.58
2024-03-15T07:12:33.164Z,1.70
2024-03-15T07:16:14.934Z,2.78
2024-03-15T07:19:57.649Z,1.88
2024-03-15T07:23:40.324Z,2.97
2024-03-15T07:27:22.897Z,2.60
2024-03-15T07:31:06.210Z,3.85
2024-03-15T07:34:48.490Z,2.78
2024-03-15T07:38:30.268Z,3.13
2024-03-15T07:42:12.265Z,3.05
2024-03-15T07:45:54.242Z,4.40
2024-03-15T07:49:36.092Z,4.05
2024-03-15T07:53:18.503Z,3.67
2024-03-15T07:57:00.354Z,3.65
2024-03-15T08:00:44.489Z,4.00
2024-03-15T08:04:27.466Z,5.55
2024-03-15T08:08:09.256Z,4.43
2024-03-15T08:11:51.879Z,4.90
2024-03-15T08:15:34.170Z,3.85
2024-03-15T08:19:16.443Z,5.20
2024-03-15T08:22:58.578Z,4.35
2024-03-15T08:26:40.872Z,4.60
2024-03-15T08:30:24.523Z,4.70
2024-03-15T08:34:09.667Z,3.95
2024-03-15T08:37:52.163Z,3.95
2024-03-15T08:41:33.938Z,4.30
2024-03-15T08:45:16.294Z,4.35
2024-03-15T08:48:58.693Z,3.55
2024-03-15T08:52:43.440Z,5.10
2024-03-15T08:56:25.799Z,5.22
2024-03-15T09:00:14.159Z,3.22
2024-03-15T09:03:56.138Z,4.85
2024-03-15T09:07:38.707Z,3.92
2024-03-15T09:11:20.544Z,3.25
2024-03-15T09:15:02.454Z,3.80
2024-03-15T09:18:44.814Z,2.47
2024-03-15T09:22:27.427Z,4.22
2024-03-15T09:26:09.257Z,4.68
2024-03-15T09:29:51.831Z,3.70
2024-03-15T09:33:36.739Z,3.20
2024-03-15T09:37:21.278Z,3.80
2024-03-15T09:41:07.466Z,4.07
2024-03-15T09:44:50.112Z,3.63
2024-03-15T09:48:36.045Z,3.35
2024-03-15T09:52:18.735Z,3.05
2024-03-15T09:56:00.560Z,4.10
2024-03-15T09:59:42.549Z,4.03
2024-03-15T10:03:24.613Z,4.70
2024-03-15T10:07:09.781Z,4.28
2024-03-15T10:10:51.640Z,3.88
2024-03-15T10:14:33.581Z,3.70
2024-03-15T10:18:15.887Z,5.28
2024-03-15T10:22:01.262Z,4.55
2024-03-15T10:25:43.248Z,3.15
2024-03-15T10:29:25.305Z,3.75
2024-03-15T10:33:09.479Z,2.97
2024-03-15T10:36:51.669Z,3.78
2024-03-15T10:40:35.601Z,3.22
2024-03-15T10:44:20.299Z,2.83
2024-03-15T10:48:07.372Z,3.47
2024-03-15T10:51:52.104Z,3.63
2024-03-15T10:55:33.998Z,3.45
2024-03-15T10:59:16.529Z,4.13
2024-03-15T11:03:11.875Z,4.18
2024-03-15T11:06:53.943Z,3.95
2024-03-15T11:10:37.435Z,5.50
2024-03-15T11:14:23.715Z,4.05
2024-03-15T11:18:08.036Z,4.22
2024-03-15T11:21:50.193Z,5.07
2024-03-15T11:25:33.662Z,4.22
2024-03-15T11:29:18.573Z,4.97
2024-03-15T11:33:01.415Z,4.10
2024-03-15T11:36:44.274Z,5.25
2024-03-15T11:40:27.298Z,4.60
2024-03-15T11:44:10.268Z,3.40
2024-03-15T11:47:53.268Z,4.07
2024-03-15T11:51:35.225Z,3.13
2024-03-15T11:55:19.162Z,2.25
2024-03-15T11:59:03.589Z,2.38
2024-03-15T12:02:45.545Z,2.05
2024-03-15T12:06:27.361Z,2.55
2024-03-15T12:10:14.845Z,2.50
2024-03-15T12:14:00.560Z,2.65
2024-03-15T12:17:42.513Z,3.72
2024-03-15T12:21:24.363Z,3.40
2024-03-15T12:25:06.641Z,3.38
2024-03-15T12:28:52.532Z,2.85
2024-03-15T12:32:34.425Z,3.47
2024-03-15T12:36:17.020Z,3.58
2024-03-15T12:40:02.289Z,4.60
2024-03-15T12:43:44.126Z,3.95
2024-03-15T12:47:25.939Z,3.70
2024-03-15T12:51:09.553Z,4.10
2024-03-15T12:54:51.325Z,3.65
2024-03-15T12:58:33.147Z,4.90
2024-03-15T13:02:15.265Z,4.28
2024-03-15T13:05:57.047Z,4.22
2024-03-15T13:09:38.913Z,4.65
2024-03-15T13:13:21.370Z,4.65
2024-03-15T13:17:04.566Z,4.05
2024-03-15T13:20:47.398Z,4.05
2024-03-15T13:24:29.255Z,3.63
2024-03-15T13:28:11.087Z,3.45
2024-03-15T13:31:52.899Z,3.25
2024-03-15T13:35:34.826Z,2.85
2024-03-15T13:39:22.705Z,1.75
2024-03-15T13:43:04.746Z,2.63
2024-03-15T13:46:46.790Z,1.40
2024-03-15T13:50:29.922Z,1.55
2024-03-15T13:54:15.000Z,1.23
2024-03-15T13:57:56.851Z,1.30
2024-03-15T14:01:39.982Z,0.85
2024-03-15T14:05:23.592Z,0.98
2024-03-15T14:09:06.220Z,1.08
2024-03-15T14:12:49.489Z,0.95
2024-03-15T14:16:32.397Z,0.80
2024-03-15T14:20:14.623Z,1.00
2024-03-15T14:23:56.385Z,1.13
2024-03-15T14:27:38.651Z,1.75
2024-03-15T14:31:22.665Z,0.93
2024-03-15T14:35:04.820Z,0.80
2024-03-15T14:38:47.512Z,1.33
2024-03-15T14:42:35.731Z,1.23
2024-03-15T14:46:19.224Z,1.00
2024-03-15T14:50:03.854Z,1.00
2024-03-15T14:53:46.717Z,0.80
2024-03-15T14:57:30.362Z,1.55
2024-03-15T15:01:12.492Z,1.25
2024-03-15T15:04:54.651Z,1.30
2024-03-15T15:08:36.610Z,1.20
2024-03-15T15:12:20.191Z,1.98
2024-03-15T15:16:02.382Z,1.10
2024-03-15T15:19:44.494Z,2.33
2024-03-15T15:23:26.263Z,2.03
2024-03-15T15:27:08.094Z,1.88
2024-03-15T15:30:50.008Z,1.85
2024-03-15T15:34:32.014Z,2.38
2024-03-15T15:38:13.859Z,1.42
2024-03-15T15:41:55.751Z,1.77
2024-03-15T15:45:41.588Z,1.65
2024-03-15T15:49:28.084Z,1.38
2024-03-15T15:53:10.200Z,1.50
2024-03-15T15:56:52.237Z,0.95
2024-03-15T16:00:34.194Z,1.40
2024-03-15T16:04:16.085Z,1.45
2024-03-15T16:07:59.387Z,0.70
2024-03-15T16:11:42.045Z,0.68
2024-03-15T16:15:23.927Z,0.82
2024-03-15T16:19:07.965Z,0.80
2024-03-15T16:22:49.860Z,0.85
2024-03-15T16:26:31.688Z,1.15
2024-03-15T16:30:13.688Z,0.73
2024-03-15T16:33:55.578Z,0.65
2024-03-15T16:37:37.620Z,0.52
2024-03-15T16:41:19.462Z,0.75
2024-03-15T16:45:02.969Z,0.85
2024-03-15T16:48:45.067Z,0.80
2024-03-15T16:52:27.954Z,0.30
2024-03-15T16:56:09.777Z,0.38
2024-03-15T16:59:52.947Z,0.50
2024-03-15T17:03:34.885Z,0.73
2024-03-15T17:07:16.938Z,0.40
2024-03-15T17:11:01.229Z,0.30
2024-03-15T17:14:43.088Z,0.35
2024-03-15T17:18:24.954Z,0.95
2024-03-15T17:22:06.916Z,0.80
2024-03-15T17:25:54.892Z,0.45
2024-03-15T17:29:36.779Z,0.50
2024-03-15T17:33:18.675Z,0.60
2024-03-15T17:37:03.735Z,0.43
2024-03-15T17:40:50.202Z,0.28
2024-03-15T17:44:32.065Z,0.55
2024-03-15T17:48:14.010Z,0.30
2024-03-15T17:51:56.147Z,0.55
2024-03-15T17:55:37.978Z,0.40
2024-03-15T17:59:19.820Z,0.40
2024-03-15T18:03:04.885Z,0.47
2024-03-15T18:06:47.107Z,0.60
2024-03-15T18:10:30.168Z,0.68
2024-03-15T18:14:12.019Z,1.02
2024-03-15T18:17:53.950Z,0.82
2024-03-15T18:21:38.076Z,0.52
2024-03-15T18:25:19.906Z,0.77
2024-03-15T18:29:01.730Z,0.80
2024-03-15T18:32:43.627Z,0.90
2024-03-15T18:36:26.508Z,1.02
2024-03-15T18:40:11.346Z,1.20
2024-03-15T18:43:53.349Z,1.55
2024-03-15T18:51:17.901Z,2.58
2024-03-15T18:54:59.819Z,2.83
2024-03-15T18:58:41.655Z,2.25
2024-03-15T19:02:29.350Z,2.38
2024-03-15T19:06:11.750Z,3.03
2024-03-15T19:10:00.367Z,2.92
2024-03-15T19:13:42.498Z,2.88
2024-03-15T19:17:27.746Z,2.28
2024-03-15T19:21:09.632Z,1.80
2024-03-15T19:24:51.545Z,2.30
2024-03-15T19:28:37.031Z,2.22
2024-03-15T19:32:18.832Z,2.08
2024-03-15T19:36:00.658Z,1.80
2024-03-15T19:39:42.853Z,1.23
2024-03-15T19:43:25.548Z,2.13
2024-03-15T19:47:08.494Z,2.20
2024-03-15T19:50:50.448Z,1.58
2024-03-15T19:54:32.304Z,1.83
2024-03-15T19:58:14.628Z,1.70
2024-03-15T20:01:56.613Z,2.42
2024-03-15T20:05:38.482Z,1.50
2024-03-15T20:09:20.310Z,1.52
2024-03-15T20:13:02.435Z,1.30
2024-03-15T20:16:50.790Z,1.85
2024-03-15T20:20:32.636Z,1.30
2024-03-15T20:24:16.162Z,1.15
2024-03-15T20:27:58.046Z,1.17
2024-03-15T20:31:39.883Z,0.90
2024-03-15T20:35:23.378Z,1.15
2024-03-15T20:39:05.180Z,0.63
2024-03-15T20:42:48.385Z,1.15
2024-03-15T20:46:32.277Z,1.02
2024-03-15T20:50:25.474Z,0.98
2024-03-15T20:58:07.301Z,0.73
2024-03-15T21:01:58.704Z,0.95
2024-03-15T21:05:43.780Z,1.30
2024-03-15T21:09:25.688Z,1.05
2024-03-15T21:13:07.653Z,1.08
2024-03-15T21:16:49.500Z,1.00
2024-03-15T21:20:33.952Z,0.95
2024-03-15T21:24:16.389Z,1.73
2024-03-15T21:27:58.944Z,1.20
2024-03-15T21:31:40.782Z,1.33
2024-03-15T21:35:23.931Z,1.25
2024-03-15T21:39:12.193Z,1.50
2024-03-15T21:42:55.553Z,1.10
2024-03-15T21:46:37.434Z,1.00
2024-03-15T21:50:19.235Z,1.10
2024-03-15T21:54:01.086Z,0.95
2024-03-15T21:57:42.977Z,1.00
2024-03-15T22:01:27.513Z,1.20
2024-03-15T22:05:12.170Z,1.30
2024-03-15T22:08:53.965Z,1.05
2024-03-15T22:12:35.755Z,1.35
2024-03-15T22:16:19.869Z,0.95
2024-03-15T22:20:02.070Z,1.00
2024-03-15T22:23:43.929Z,1.13
2024-03-15T22:27:26.539Z,1.58
2024-03-15T22:31:08.967Z,1.20
2024-03-15T22:34:52.670Z,1.58
2024-03-15T22:38:34.456Z,1.55
2024-03-15T22:42:16.273Z,1.15
2024-03-15T22:45:58.101Z,1.38
2024-03-15T22:49:39.954Z,1.27
2024-03-15T22:53:21.780Z,1.20
2024-03-15T22:57:03.654Z,1.35
2024-03-15T23:00:48.591Z,0.93
2024-03-15T23:04:30.478Z,1.50
2024-03-15T23:08:13.586Z,1.00
2024-03-15T23:11:55.428Z,1.45
2024-03-15T23:15:40.623Z,0.95
2024-03-15T23:19:22.528Z,1.08
2024-03-15T23:23:05.523Z,1.30
2024-03-15T23:26:47.429Z,0.90
2024-03-15T23:30:29.728Z,0.98
2024-03-15T23:34:11.811Z,1.15
2024-03-15T23:37:53.765Z,1.58
2024-03-15T23:41:35.722Z,1.98
2024-03-15T23:45:17.725Z,1.30
2024-03-15T23:48:59.563Z,1.20
2024-03-15T23:52:41.392Z,1.58
2024-03-15T23:56:23.250Z,2.40
